Time;durP1;ratioP1;P1;durP2;ratioP2;P2;SDS_P1;SDS_P2;PMS_P1;PMS_P2;Temp;Humidity;BMP_temperature;BMP_pressure;BME280_temperature;BME280_humidity;BME280_pressure;Samples;Min_cycle;Max_cycle;Signal;HPM_P1;HPM_P2
2022/06/15 00:01:52;;;;;;;14.20;6.50;;;;;;;;;;6165739;23;20093;-82
2022/06/15 00:04:19;;;;;;;10.32;6.28;;;;;;;;;;6166088;23;20077;-82
2022/06/15 00:06:46;;;;;;;9.25;5.57;;;;;;;;;;6165934;23;20022;-82
2022/06/15 00:09:13;;;;;;;10.00;5.30;;;;;;;;;;6167189;23;20045;-84
2022/06/15 00:11:42;;;;;;;11.27;4.55;;;;;;;;;;6141155;23;20057;-82
2022/06/15 00:14:20;;;;;;;9.57;4.90;;;;;;;;;;6165856;23;20918;-82
2022/06/15 00:16:48;;;;;;;11.90;4.80;;;;;;;;;;6166119;23;20026;-82
2022/06/15 00:19:15;;;;;;;12.00;5.10;;;;;;;;;;6166844;23;20032;-82
2022/06/15 00:21:42;;;;;;;11.23;5.55;;;;;;;;;;6169912;23;20137;-82
2022/06/15 00:24:10;;;;;;;11.60;5.32;;;;;;;;;;6166356;23;20101;-82
2022/06/15 00:26:38;;;;;;;9.35;5.13;;;;;;;;;;6166334;23;20024;-82
2022/06/15 00:29:06;;;;;;;12.30;5.72;;;;;;;;;;6166514;23;20056;-82
2022/06/15 00:31:33;;;;;;;10.60;5.63;;;;;;;;;;6166095;23;20014;-82
2022/06/15 00:34:00;;;;;;;10.45;5.72;;;;;;;;;;6166158;23;20026;-81
2022/06/15 00:36:30;;;;;;;11.00;5.10;;;;;;;;;;6165537;23;20020;-82
2022/06/15 00:38:58;;;;;;;10.70;4.95;;;;;;;;;;6165628;23;20105;-81
2022/06/15 00:41:25;;;;;;;9.90;5.05;;;;;;;;;;6163959;23;20916;-82
2022/06/15 00:43:54;;;;;;;9.48;5.30;;;;;;;;;;6164634;23;20026;-82
2022/06/15 00:46:24;;;;;;;10.05;5.30;;;;;;;;;;6164263;23;20022;-81
2022/06/15 00:48:54;;;;;;;8.75;5.90;;;;;;;;;;6164979;23;20036;-82
2022/06/15 00:51:22;;;;;;;8.48;5.68;;;;;;;;;;6163844;23;20022;-81
2022/06/15 00:53:49;;;;;;;12.20;6.00;;;;;;;;;;6164241;23;20030;-82
2022/06/15 00:56:17;;;;;;;10.20;5.90;;;;;;;;;;6165247;23;20049;-82
2022/06/15 00:58:46;;;;;;;28.23;7.10;;;;;;;;;;6165229;23;20026;-81
2022/06/15 01:01:13;;;;;;;24.50;7.13;;;;;;;;;;6164020;23;20120;-82
2022/06/15 01:03:41;;;;;;;13.43;5.95;;;;;;;;;;6163801;23;20881;-82
2022/06/15 01:06:13;;;;;;;14.82;4.90;;;;;;;;;;6163859;23;20191;-82
2022/06/15 01:08:52;;;;;;;14.55;4.78;;;;;;;;;;6164793;23;20022;-82
2022/06/15 01:11:27;;;;;;;9.32;4.68;;;;;;;;;;6164915;23;20021;-83
2022/06/15 01:14:00;;;;;;;11.55;4.75;;;;;;;;;;6165297;23;20081;-81
2022/06/15 01:16:28;;;;;;;9.40;4.75;;;;;;;;;;6165533;23;20106;-82
2022/06/15 01:19:04;;;;;;;10.95;4.20;;;;;;;;;;6138556;23;20025;-82
2022/06/15 01:21:38;;;;;;;11.70;5.00;;;;;;;;;;6164268;23;20029;-82
2022/06/15 01:24:08;;;;;;;9.18;4.90;;;;;;;;;;6164110;23;20037;-81
2022/06/15 01:27:02;;;;;;;9.70;5.00;;;;;;;;;;6164300;23;20018;-82
2022/06/15 01:29:53;;;;;;;6.72;4.45;;;;;;;;;;6164095;23;20146;-81
2022/06/15 01:32:26;;;;;;;7.57;4.65;;;;;;;;;;6149610;23;20026;-83
2022/06/15 01:34:54;;;;;;;13.20;4.72;;;;;;;;;;6165899;23;20828;-82
2022/06/15 01:37:27;;;;;;;8.77;4.75;;;;;;;;;;6168371;23;20025;-82
2022/06/15 01:40:00;;;;;;;15.10;5.57;;;;;;;;;;6170411;23;20026;-82
2022/06/15 01:42:42;;;;;;;19.35;5.50;;;;;;;;;;6165982;23;20036;-82
2022/06/15 01:45:13;;;;;;;27.20;6.85;;;;;;;;;;6163970;23;20652;-82
2022/06/15 01:47:43;;;;;;;18.65;5.13;;;;;;;;;;6164391;23;20077;-81
2022/06/15 01:50:13;;;;;;;14.95;4.63;;;;;;;;;;6164461;23;20032;-82
2022/06/15 01:52:48;;;;;;;9.02;4.40;;;;;;;;;;6164883;23;20105;-82
2022/06/15 01:55:20;;;;;;;8.48;4.13;;;;;;;;;;6163684;23;20380;-81
2022/06/15 01:57:51;;;;;;;10.05;4.68;;;;;;;;;;6164619;23;20025;-81
2022/06/15 02:00:19;;;;;;;8.63;4.35;;;;;;;;;;6165115;23;20032;-82
2022/06/15 02:02:49;;;;;;;9.25;4.00;;;;;;;;;;6164707;23;20026;-82
2022/06/15 02:05:23;;;;;;;17.30;4.53;;;;;;;;;;6164253;23;20712;-81
2022/06/15 02:08:10;;;;;;;9.80;4.43;;;;;;;;;;6167741;23;20640;-82
2022/06/15 02:10:44;;;;;;;11.27;5.10;;;;;;;;;;6166594;23;20085;-81
2022/06/15 02:13:23;;;;;;;9.65;4.57;;;;;;;;;;6166153;23;20026;-81
2022/06/15 02:15:52;;;;;;;8.13;4.50;;;;;;;;;;6166450;23;20097;-82
2022/06/15 02:18:20;;;;;;;8.10;4.80;;;;;;;;;;6164842;23;20765;-82
2022/06/15 02:20:51;;;;;;;8.15;4.93;;;;;;;;;;6166243;23;20024;-83
2022/06/15 02:23:19;;;;;;;12.60;4.80;;;;;;;;;;6165633;23;20026;-83
2022/06/15 02:25:51;;;;;;;19.65;4.82;;;;;;;;;;6140874;23;20026;-81
2022/06/15 02:28:19;;;;;;;13.52;5.40;;;;;;;;;;6166545;23;20026;-82
2022/06/15 02:30:46;;;;;;;15.63;5.78;;;;;;;;;;6166832;23;20127;-81
2022/06/15 02:33:20;;;;;;;14.85;5.00;;;;;;;;;;6141180;23;20014;-82
2022/06/15 02:35:47;;;;;;;11.93;4.30;;;;;;;;;;6167732;23;20032;-82
2022/06/15 02:38:14;;;;;;;8.73;4.05;;;;;;;;;;6166518;23;20018;-81
2022/06/15 02:40:41;;;;;;;8.95;4.07;;;;;;;;;;6167252;23;20026;-81
2022/06/15 02:43:09;;;;;;;8.63;3.58;;;;;;;;;;6167754;23;20101;-82
2022/06/15 02:45:39;;;;;;;9.98;4.50;;;;;;;;;;6168207;23;20771;-81
2022/06/15 02:48:07;;;;;;;28.02;5.18;;;;;;;;;;6167601;23;20089;-82
2022/06/15 02:50:40;;;;;;;58.00;6.57;;;;;;;;;;6141240;23;20029;-83
2022/06/15 02:53:15;;;;;;;85.05;11.15;;;;;;;;;;6168734;23;20114;-81
2022/06/15 02:55:43;;;;;;;78.60;9.20;;;;;;;;;;6166364;23;20033;-81
2022/06/15 02:58:12;;;;;;;49.78;7.68;;;;;;;;;;6165885;23;20014;-82
2022/06/15 03:00:40;;;;;;;38.75;5.95;;;;;;;;;;6166843;23;20022;-82
2022/06/15 03:03:07;;;;;;;24.30;5.13;;;;;;;;;;6168322;23;20030;-82
2022/06/15 03:05:34;;;;;;;15.90;4.35;;;;;;;;;;6167819;23;20898;-82
2022/06/15 03:08:01;;;;;;;22.85;4.65;;;;;;;;;;6168082;23;20046;-82
2022/06/15 03:10:29;;;;;;;17.13;4.35;;;;;;;;;;6167282;23;20125;-81
2022/06/15 03:12:56;;;;;;;30.63;5.47;;;;;;;;;;6139516;23;20020;-81
2022/06/15 03:15:23;;;;;;;20.45;5.63;;;;;;;;;;6167926;23;20101;-81
2022/06/15 03:17:52;;;;;;;29.05;5.20;;;;;;;;;;6166669;23;20858;-82
2022/06/15 03:20:20;;;;;;;27.70;5.22;;;;;;;;;;6166924;23;20775;-82
2022/06/15 03:22:47;;;;;;;21.27;4.45;;;;;;;;;;6168462;23;20026;-82
2022/06/15 03:25:14;;;;;;;9.98;4.07;;;;;;;;;;6170306;23;20014;-81
2022/06/15 03:27:41;;;;;;;7.28;3.83;;;;;;;;;;6170066;23;20014;-81
2022/06/15 03:30:08;;;;;;;13.75;4.10;;;;;;;;;;6172045;23;20025;-83
2022/06/15 03:32:35;;;;;;;9.23;4.60;;;;;;;;;;6173097;23;20014;-82
2022/06/15 03:35:03;;;;;;;15.18;4.90;;;;;;;;;;6174230;23;20048;-81
2022/06/15 03:37:30;;;;;;;14.55;4.40;;;;;;;;;;6171673;23;20018;-81
2022/06/15 03:39:57;;;;;;;16.95;4.55;;;;;;;;;;6173153;23;20026;-81
2022/06/15 03:42:25;;;;;;;13.35;4.95;;;;;;;;;;6168583;23;20109;-81
2022/06/15 03:44:53;;;;;;;19.77;4.85;;;;;;;;;;6140549;23;20364;-81
2022/06/15 03:47:21;;;;;;;15.70;4.65;;;;;;;;;;6152333;23;20425;-81
2022/06/15 03:49:49;;;;;;;17.50;4.93;;;;;;;;;;6137094;23;20033;-82
2022/06/15 03:52:17;;;;;;;20.85;5.15;;;;;;;;;;6137020;23;20026;-81
2022/06/15 03:54:47;;;;;;;27.75;5.22;;;;;;;;;;6138751;23;20038;-82
2022/06/15 03:57:15;;;;;;;13.40;4.43;;;;;;;;;;6113037;23;20022;-83
2022/06/15 03:59:43;;;;;;;12.32;4.50;;;;;;;;;;6139212;23;20097;-81
2022/06/15 04:02:10;;;;;;;13.68;4.32;;;;;;;;;;6139474;23;20099;-82
2022/06/15 04:04:37;;;;;;;19.23;4.45;;;;;;;;;;6138768;23;20033;-81
2022/06/15 04:07:05;;;;;;;30.60;4.68;;;;;;;;;;6112787;23;20881;-81
2022/06/15 04:09:33;;;;;;;25.88;5.25;;;;;;;;;;6139010;23;20089;-82
2022/06/15 04:12:08;;;;;;;35.20;5.95;;;;;;;;;;6138790;23;20117;-81
2022/06/15 04:14:35;;;;;;;18.83;5.18;;;;;;;;;;6113448;23;20034;-81
2022/06/15 04:17:03;;;;;;;15.13;5.00;;;;;;;;;;6139329;23;20066;-81
2022/06/15 04:19:32;;;;;;;12.52;4.57;;;;;;;;;;6140460;23;20022;-81
2022/06/15 04:22:00;;;;;;;12.50;4.90;;;;;;;;;;6140686;23;20801;-82
2022/06/15 04:24:28;;;;;;;10.63;4.78;;;;;;;;;;6140109;23;20011;-81
2022/06/15 04:26:56;;;;;;;9.68;4.28;;;;;;;;;;6140094;23;20029;-81
2022/06/15 04:29:23;;;;;;;10.77;5.00;;;;;;;;;;6140159;23;20055;-82
2022/06/15 04:31:51;;;;;;;12.52;5.68;;;;;;;;;;6140369;23;20075;-82
2022/06/15 04:34:18;;;;;;;15.32;5.45;;;;;;;;;;6140592;23;20034;-82
2022/06/15 04:36:45;;;;;;;15.93;5.70;;;;;;;;;;6141597;23;20022;-81
2022/06/15 04:39:14;;;;;;;38.25;7.38;;;;;;;;;;6140053;23;20029;-82
2022/06/15 04:41:41;;;;;;;55.28;7.15;;;;;;;;;;6141621;23;20027;-81
2022/06/15 04:44:10;;;;;;;51.13;7.38;;;;;;;;;;6140691;23;20035;-81
2022/06/15 04:46:37;;;;;;;32.45;7.05;;;;;;;;;;6145551;23;20021;-82
2022/06/15 04:49:05;;;;;;;41.63;7.20;;;;;;;;;;6169650;23;20075;-81
2022/06/15 04:51:38;;;;;;;23.88;6.55;;;;;;;;;;6169929;23;20018;-82
2022/06/15 04:54:09;;;;;;;22.98;6.38;;;;;;;;;;6172283;23;20030;-82
2022/06/15 04:56:37;;;;;;;27.83;6.78;;;;;;;;;;6170577;23;20806;-82
2022/06/15 04:59:05;;;;;;;31.75;6.85;;;;;;;;;;6170490;23;20018;-82
2022/06/15 05:01:32;;;;;;;20.02;5.93;;;;;;;;;;6169880;23;20597;-82
2022/06/15 05:03:59;;;;;;;21.23;6.18;;;;;;;;;;6169733;23;20075;-81
2022/06/15 05:06:29;;;;;;;20.73;7.45;;;;;;;;;;6169752;23;20459;-82
2022/06/15 05:08:56;;;;;;;11.05;5.72;;;;;;;;;;6141417;23;20794;-82
2022/06/15 05:11:26;;;;;;;13.93;6.40;;;;;;;;;;6167211;23;20109;-82
2022/06/15 05:13:54;;;;;;;14.73;5.50;;;;;;;;;;6159276;23;20113;-82
2022/06/15 05:16:21;;;;;;;12.98;6.70;;;;;;;;;;6159419;23;20098;-81
2022/06/15 05:18:48;;;;;;;13.50;5.88;;;;;;;;;;6159627;23;21295;-82
2022/06/15 05:21:16;;;;;;;11.25;5.65;;;;;;;;;;6159707;23;20913;-82
2022/06/15 05:23:43;;;;;;;15.35;6.10;;;;;;;;;;6159279;23;20091;-82
2022/06/15 05:26:10;;;;;;;8.43;5.90;;;;;;;;;;6159751;23;20060;-82
2022/06/15 05:28:44;;;;;;;10.35;5.72;;;;;;;;;;6159332;23;20022;-81
2022/06/15 05:31:20;;;;;;;18.85;5.22;;;;;;;;;;6159948;23;20042;-81
2022/06/15 05:33:53;;;;;;;9.35;4.93;;;;;;;;;;6158865;23;20048;-81
2022/06/15 05:36:22;;;;;;;13.07;5.18;;;;;;;;;;6159617;23;20049;-82
2022/06/15 05:38:49;;;;;;;10.85;5.28;;;;;;;;;;6159238;23;20405;-82
2022/06/15 05:41:16;;;;;;;10.38;5.75;;;;;;;;;;6160034;23;20101;-81
2022/06/15 05:44:26;;;;;;;15.70;5.75;;;;;;;;;;6160764;23;20033;-81
2022/06/15 05:46:34;;;;;;;10.38;4.78;;;;;;;;;;6148561;23;20048;-82
2022/06/15 05:49:02;;;;;;;12.02;5.68;;;;;;;;;;6160779;23;20048;-81
2022/06/15 05:51:30;;;;;;;10.20;5.20;;;;;;;;;;6160908;23;20037;-81
2022/06/15 05:53:57;;;;;;;9.52;4.75;;;;;;;;;;6155949;23;20057;-82
2022/06/15 05:56:26;;;;;;;10.70;5.40;;;;;;;;;;6160342;23;20052;-82
2022/06/15 05:58:53;;;;;;;13.05;5.10;;;;;;;;;;6160820;23;20026;-82
2022/06/15 06:01:25;;;;;;;14.23;4.90;;;;;;;;;;6160807;23;20029;-82
2022/06/15 06:03:53;;;;;;;17.83;5.65;;;;;;;;;;6161695;23;20038;-82
2022/06/15 06:06:21;;;;;;;10.23;4.85;;;;;;;;;;6160847;23;20389;-81
2022/06/15 06:08:48;;;;;;;11.40;4.65;;;;;;;;;;6154983;23;20077;-82
2022/06/15 06:11:16;;;;;;;11.10;5.07;;;;;;;;;;6162063;23;20036;-82
2022/06/15 06:13:43;;;;;;;13.57;4.80;;;;;;;;;;6170550;23;20033;-82
2022/06/15 06:16:18;;;;;;;11.52;4.90;;;;;;;;;;6170576;23;20029;-82
2022/06/15 06:18:45;;;;;;;12.88;4.93;;;;;;;;;;6169887;23;20057;-83
2022/06/15 06:21:13;;;;;;;13.43;5.05;;;;;;;;;;6169881;23;20087;-82
2022/06/15 06:23:43;;;;;;;10.23;4.18;;;;;;;;;;6169454;23;20026;-82
2022/06/15 06:26:21;;;;;;;7.50;4.20;;;;;;;;;;6170725;23;20018;-81
2022/06/15 06:28:49;;;;;;;10.48;4.32;;;;;;;;;;6169673;23;20851;-84
2022/06/15 06:31:19;;;;;;;8.48;4.05;;;;;;;;;;6155309;23;20064;-82
2022/06/15 06:33:48;;;;;;;12.00;4.40;;;;;;;;;;6170196;23;20030;-83
2022/06/15 06:36:28;;;;;;;12.30;4.70;;;;;;;;;;6158000;23;20110;-83
2022/06/15 06:38:55;;;;;;;10.05;4.13;;;;;;;;;;6170969;23;20029;-82
2022/06/15 06:41:24;;;;;;;10.55;4.47;;;;;;;;;;6171346;23;20022;-82
2022/06/15 06:43:53;;;;;;;12.80;4.50;;;;;;;;;;6170403;23;20034;-83
2022/06/15 06:46:20;;;;;;;12.90;4.43;;;;;;;;;;6171077;23;20050;-82
2022/06/15 06:48:48;;;;;;;10.75;3.78;;;;;;;;;;6171986;23;20029;-82
2022/06/15 06:51:17;;;;;;;14.23;4.60;;;;;;;;;;6171609;23;20014;-82
2022/06/15 06:53:45;;;;;;;14.20;4.20;;;;;;;;;;6171681;23;20018;-82
2022/06/15 06:56:12;;;;;;;8.45;3.83;;;;;;;;;;6171129;23;20085;-82
2022/06/15 06:58:40;;;;;;;11.23;4.07;;;;;;;;;;6172606;23;20042;-82
2022/06/15 07:01:07;;;;;;;13.25;3.42;;;;;;;;;;6171623;23;20028;-83
2022/06/15 07:03:34;;;;;;;8.25;4.00;;;;;;;;;;6171905;23;20613;-82
2022/06/15 07:06:03;;;;;;;8.20;3.80;;;;;;;;;;6172149;23;20029;-82
2022/06/15 07:08:30;;;;;;;15.77;4.00;;;;;;;;;;6170990;23;20021;-83
2022/06/15 07:10:57;;;;;;;12.65;3.55;;;;;;;;;;6170098;23;20018;-83
2022/06/15 07:13:27;;;;;;;9.05;4.03;;;;;;;;;;6170983;23;20083;-82
2022/06/15 07:15:56;;;;;;;10.07;3.78;;;;;;;;;;6169870;23;20731;-82
2022/06/15 07:18:23;;;;;;;9.18;3.10;;;;;;;;;;6170854;23;20024;-82
2022/06/15 07:20:50;;;;;;;11.88;3.67;;;;;;;;;;6169077;23;20025;-83
2022/06/15 07:23:17;;;;;;;13.27;4.00;;;;;;;;;;6169964;23;20036;-83
2022/06/15 07:25:45;;;;;;;7.88;3.70;;;;;;;;;;6170513;23;20022;-82
2022/06/15 07:28:13;;;;;;;8.30;3.45;;;;;;;;;;6169601;23;20839;-82
2022/06/15 07:30:40;;;;;;;11.00;3.40;;;;;;;;;;6170300;23;20022;-82
2022/06/15 07:33:07;;;;;;;10.63;3.95;;;;;;;;;;6169717;23;20042;-83
2022/06/15 07:35:36;;;;;;;10.48;4.20;;;;;;;;;;6169879;23;20022;-83
2022/06/15 07:38:03;;;;;;;10.38;3.30;;;;;;;;;;6169447;23;20014;-82
2022/06/15 07:40:51;;;;;;;8.60;3.13;;;;;;;;;;6169539;23;20085;-83
2022/06/15 07:43:18;;;;;;;10.82;3.13;;;;;;;;;;6169330;23;20033;-83
2022/06/15 07:45:45;;;;;;;11.35;3.15;;;;;;;;;;6173219;23;20386;-83
2022/06/15 07:50:59;;;;;;;9.90;3.17;;;;;;;;;;6172947;23;20061;-82
2022/06/15 07:53:26;;;;;;;8.10;2.70;;;;;;;;;;6170153;23;20144;-82
2022/06/15 07:55:54;;;;;;;11.57;2.85;;;;;;;;;;6174849;23;20073;-82
2022/06/15 07:58:21;;;;;;;11.82;3.35;;;;;;;;;;6172731;23;20038;-83
2022/06/15 08:00:49;;;;;;;8.30;2.75;;;;;;;;;;6169646;23;20026;-82
2022/06/15 08:03:17;;;;;;;12.25;2.67;;;;;;;;;;6168804;23;20010;-83
2022/06/15 08:05:46;;;;;;;9.95;2.80;;;;;;;;;;6169883;23;20018;-83
2022/06/15 08:08:15;;;;;;;8.88;2.60;;;;;;;;;;6170895;23;20042;-83
2022/06/15 08:10:46;;;;;;;9.20;2.40;;;;;;;;;;6170446;23;20036;-82
2022/06/15 08:13:13;;;;;;;8.73;2.53;;;;;;;;;;6171255;23;20038;-82
2022/06/15 08:15:41;;;;;;;11.73;2.78;;;;;;;;;;6169754;23;20022;-81
2022/06/15 08:18:11;;;;;;;10.57;2.30;;;;;;;;;;6166790;23;20022;-81
2022/06/15 08:20:41;;;;;;;10.07;2.75;;;;;;;;;;6171279;23;20101;-82
2022/06/15 08:23:14;;;;;;;6.22;2.10;;;;;;;;;;6170444;23;20038;-82
2022/06/15 08:25:43;;;;;;;6.85;2.03;;;;;;;;;;6167692;23;20024;-82
2022/06/15 08:28:11;;;;;;;7.35;2.17;;;;;;;;;;6169385;23;20018;-82
2022/06/15 08:30:43;;;;;;;10.45;2.50;;;;;;;;;;6173247;23;20026;-83
2022/06/15 08:33:15;;;;;;;6.60;1.80;;;;;;;;;;6172213;23;20021;-83
2022/06/15 08:35:42;;;;;;;8.45;1.95;;;;;;;;;;6172604;23;20024;-82
2022/06/15 08:38:12;;;;;;;11.00;2.50;;;;;;;;;;6171149;23;20024;-82
2022/06/15 08:40:45;;;;;;;8.27;2.40;;;;;;;;;;6171518;23;20065;-82
2022/06/15 08:43:14;;;;;;;;;;;;;;;;;;6171755;23;20014;-83
2022/06/15 08:45:47;;;;;;;7.60;2.20;;;;;;;;;;6169202;23;44876;-82
2022/06/15 08:48:35;;;;;;;7.70;2.65;;;;;;;;;;6145384;23;20014;-83
2022/06/15 08:51:05;;;;;;;9.10;2.30;;;;;;;;;;6170450;23;20081;-82
2022/06/15 08:53:35;;;;;;;7.03;2.10;;;;;;;;;;6172676;23;20812;-82
2022/06/15 08:56:10;;;;;;;8.02;2.38;;;;;;;;;;6172900;23;20179;-83
2022/06/15 08:58:45;;;;;;;7.85;2.17;;;;;;;;;;6173292;23;20759;-82
2022/06/15 09:01:16;;;;;;;7.57;2.30;;;;;;;;;;6170739;23;20014;-83
2022/06/15 09:03:43;;;;;;;8.23;2.30;;;;;;;;;;6146161;23;20152;-83
2022/06/15 09:06:29;;;;;;;7.50;2.00;;;;;;;;;;6174046;23;20024;-82
2022/06/15 09:09:33;;;;;;;6.55;2.03;;;;;;;;;;6173480;23;20018;-82
2022/06/15 09:15:18;;;;;;;8.52;2.45;;;;;;;;;;6056665;23;20867;-83
2022/06/15 09:17:47;;;;;;;14.00;2.20;;;;;;;;;;6053639;23;20023;-82
2022/06/15 09:20:18;;;;;;;6.72;2.03;;;;;;;;;;6028545;23;20028;-82
2022/06/15 09:22:49;;;;;;;12.68;2.20;;;;;;;;;;6051806;23;20027;-82
2022/06/15 09:25:26;;;;;;;5.10;1.92;;;;;;;;;;6052711;23;20019;-82
2022/06/15 09:28:25;;;;;;;6.90;2.17;;;;;;;;;;6053035;23;20020;-83
2022/06/15 09:30:55;;;;;;;7.53;2.33;;;;;;;;;;6052635;23;20263;-84
2022/06/15 09:33:29;;;;;;;5.50;2.00;;;;;;;;;;6054202;23;20027;-83
2022/06/15 09:36:02;;;;;;;9.80;2.08;;;;;;;;;;6031672;23;20067;-83
2022/06/15 09:38:31;;;;;;;6.50;2.00;;;;;;;;;;6055553;23;20072;-83
2022/06/15 09:41:03;;;;;;;6.28;2.00;;;;;;;;;;6054673;23;20536;-83
2022/06/15 09:43:50;;;;;;;6.40;2.00;;;;;;;;;;6055144;23;20868;-83
2022/06/15 09:46:37;;;;;;;5.45;2.20;;;;;;;;;;6104499;23;20007;-85
2022/06/15 09:49:12;;;;;;;9.25;2.15;;;;;;;;;;6149919;23;20096;-82
2022/06/15 09:51:45;;;;;;;7.88;2.20;;;;;;;;;;6176252;23;20024;-82
2022/06/15 09:54:37;;;;;;;6.63;1.92;;;;;;;;;;6176240;23;20037;-82
2022/06/15 09:57:07;;;;;;;6.45;2.17;;;;;;;;;;6149632;23;20014;-83
2022/06/15 09:59:34;;;;;;;10.27;2.20;;;;;;;;;;6176108;23;20077;-83
2022/06/15 10:02:06;;;;;;;6.95;1.90;;;;;;;;;;6174458;23;20018;-84
2022/06/15 10:04:36;;;;;;;7.93;2.08;;;;;;;;;;6175696;23;20018;-82
2022/06/15 10:07:31;;;;;;;6.07;1.90;;;;;;;;;;6175564;23;20032;-83
2022/06/15 10:10:01;;;;;;;4.50;1.80;;;;;;;;;;6176756;23;20014;-83
2022/06/15 10:15:19;;;;;;;8.05;2.20;;;;;;;;;;6176387;23;20036;-83
2022/06/15 10:17:48;;;;;;;6.25;2.20;;;;;;;;;;6176444;23;20010;-83
2022/06/15 10:20:22;;;;;;;6.13;1.98;;;;;;;;;;6179708;23;20065;-83
2022/06/15 10:22:55;;;;;;;5.93;2.15;;;;;;;;;;6151104;23;20022;-84
2022/06/15 10:25:23;;;;;;;7.65;2.17;;;;;;;;;;6178753;23;20014;-83
2022/06/15 10:27:51;;;;;;;8.02;2.20;;;;;;;;;;6151601;23;20025;-84
2022/06/15 10:30:21;;;;;;;7.15;2.28;;;;;;;;;;6180071;23;20026;-83
2022/06/15 10:32:59;;;;;;;7.13;2.00;;;;;;;;;;6181372;23;20026;-83
2022/06/15 10:35:28;;;;;;;7.63;2.17;;;;;;;;;;6179143;23;20078;-83
2022/06/15 10:38:02;;;;;;;6.07;2.00;;;;;;;;;;6181442;23;20021;-84
2022/06/15 10:40:31;;;;;;;9.45;1.98;;;;;;;;;;6182054;23;20579;-83
2022/06/15 10:43:03;;;;;;;6.63;2.17;;;;;;;;;;6151755;23;20014;-83
2022/06/15 10:46:00;;;;;;;8.60;2.50;;;;;;;;;;6180400;23;20085;-83
2022/06/15 10:48:35;;;;;;;5.35;2.20;;;;;;;;;;6150503;23;20014;-84
2022/06/15 10:51:11;;;;;;;5.13;1.95;;;;;;;;;;6177405;23;20037;-83
2022/06/15 10:53:41;;;;;;;5.75;2.28;;;;;;;;;;6180393;23;20105;-82
2022/06/15 11:02:43;;;;;;;6.03;1.90;;;;;;;;;;6089191;23;20120;-83
2022/06/15 11:05:10;;;;;;;6.85;1.98;;;;;;;;;;6088292;23;20031;-83
2022/06/15 11:07:46;;;;;;;4.80;2.13;;;;;;;;;;6090484;23;20075;-83
2022/06/15 11:10:13;;;;;;;5.60;2.05;;;;;;;;;;6090731;23;20015;-83
2022/06/15 11:12:48;;;;;;;5.65;1.80;;;;;;;;;;6089278;23;20049;-84
2022/06/15 11:15:15;;;;;;;10.02;2.30;;;;;;;;;;6088737;23;20031;-83
2022/06/15 11:18:03;;;;;;;3.97;1.65;;;;;;;;;;6093157;23;20015;-85
2022/06/15 11:20:36;;;;;;;5.10;1.75;;;;;;;;;;6086295;23;20004;-84
2022/06/15 11:23:13;;;;;;;7.15;2.00;;;;;;;;;;6091221;23;20027;-85
2022/06/15 11:25:47;;;;;;;4.88;1.60;;;;;;;;;;6067951;23;20048;-84
2022/06/15 11:28:20;;;;;;;5.88;1.80;;;;;;;;;;6069332;23;20028;-84
2022/06/15 11:30:52;;;;;;;5.13;2.00;;;;;;;;;;6090905;23;20025;-83
2022/06/15 11:33:23;;;;;;;6.93;1.80;;;;;;;;;;6088493;23;20019;-83
2022/06/15 11:36:00;;;;;;;8.35;1.90;;;;;;;;;;6089130;23;20086;-84
2022/06/15 11:38:30;;;;;;;4.53;1.90;;;;;;;;;;6150536;23;20024;-84
2022/06/15 11:41:14;;;;;;;5.35;1.77;;;;;;;;;;6180011;23;20613;-83
2022/06/15 11:43:46;;;;;;;5.13;1.70;;;;;;;;;;6179293;23;20082;-84
2022/06/15 11:46:21;;;;;;;5.38;2.00;;;;;;;;;;6181246;23;20009;-83
2022/06/15 11:48:55;;;;;;;7.10;2.00;;;;;;;;;;6183570;23;20037;-83
2022/06/15 11:51:33;;;;;;;5.05;1.60;;;;;;;;;;6180953;23;20010;-85
2022/06/15 11:54:15;;;;;;;8.40;2.10;;;;;;;;;;6181373;23;20014;-83
2022/06/15 11:56:54;;;;;;;7.10;1.70;;;;;;;;;;6179917;23;20114;-83
2022/06/15 11:59:41;;;;;;;6.63;1.90;;;;;;;;;;6180411;23;20002;-83
2022/06/15 12:02:18;;;;;;;6.10;1.77;;;;;;;;;;6183135;23;20003;-83
2022/06/15 12:04:54;;;;;;;5.43;1.90;;;;;;;;;;6181660;23;20054;-84
2022/06/15 12:07:45;;;;;;;7.03;2.00;;;;;;;;;;6181421;23;20018;-84
2022/06/15 12:10:32;;;;;;;6.28;2.13;;;;;;;;;;6183805;23;20045;-83
2022/06/15 12:13:14;;;;;;;8.00;1.70;;;;;;;;;;6183711;23;20022;-83
2022/06/15 12:15:50;;;;;;;7.18;1.80;;;;;;;;;;6185167;23;20038;-85
2022/06/15 12:18:30;;;;;;;6.30;1.90;;;;;;;;;;6185338;23;20018;-84
2022/06/15 12:21:00;;;;;;;7.35;2.25;;;;;;;;;;6185641;23;20046;-85
2022/06/15 12:23:33;;;;;;;6.93;2.10;;;;;;;;;;6183018;23;20054;-84
2022/06/15 12:26:13;;;;;;;6.05;1.70;;;;;;;;;;6182652;23;20078;-83
2022/06/15 12:28:52;;;;;;;7.90;2.03;;;;;;;;;;6182671;23;20022;-85
2022/06/15 12:31:33;;;;;;;7.15;1.90;;;;;;;;;;6156643;23;20563;-83
2022/06/15 12:34:19;;;;;;;7.43;1.88;;;;;;;;;;6180796;23;20014;-83
2022/06/15 12:36:53;;;;;;;6.15;1.65;;;;;;;;;;6182303;23;20029;-85
2022/06/15 12:40:04;;;;;;;9.15;1.90;;;;;;;;;;6181708;23;20081;-84
2022/06/15 12:42:39;;;;;;;5.82;1.90;;;;;;;;;;6063397;23;20019;-84
2022/06/15 12:45:09;;;;;;;4.72;1.90;;;;;;;;;;6062532;23;20020;-84
2022/06/15 12:47:40;;;;;;;4.30;1.70;;;;;;;;;;6077182;23;20030;-85
2022/06/15 12:50:25;;;;;;;8.20;1.65;;;;;;;;;;6090091;23;20027;-83
2022/06/15 12:52:57;;;;;;;6.53;1.70;;;;;;;;;;6089164;23;20007;-83
2022/06/15 12:55:48;;;;;;;9.35;1.80;;;;;;;;;;6090273;23;20059;-85
2022/06/15 12:58:22;;;;;;;6.10;1.80;;;;;;;;;;6093241;23;20007;-86
2022/06/15 13:00:55;;;;;;;4.85;2.00;;;;;;;;;;6095368;23;20031;-84
2022/06/15 13:03:33;;;;;;;5.03;1.85;;;;;;;;;;6095089;23;20091;-86
2022/06/15 13:06:18;;;;;;;5.53;1.73;;;;;;;;;;6094619;23;20031;-84
2022/06/15 13:08:49;;;;;;;5.22;1.90;;;;;;;;;;6095243;23;20000;-84
2022/06/15 13:11:19;;;;;;;3.97;1.60;;;;;;;;;;6094857;23;20075;-84
2022/06/15 13:13:54;;;;;;;4.75;1.77;;;;;;;;;;6093299;23;20044;-85
2022/06/15 13:16:34;;;;;;;8.15;1.88;;;;;;;;;;6094014;23;19992;-84
2022/06/15 13:19:03;;;;;;;5.93;1.90;;;;;;;;;;6122456;23;20002;-85
2022/06/15 13:21:49;;;;;;;3.92;1.70;;;;;;;;;;6184626;23;20014;-83
2022/06/15 13:24:19;;;;;;;5.35;1.90;;;;;;;;;;6171197;23;20065;-84
2022/06/15 13:26:55;;;;;;;6.53;1.83;;;;;;;;;;6183822;23;20026;-85
2022/06/15 13:29:25;;;;;;;7.45;1.88;;;;;;;;;;6161564;23;20404;-84
2022/06/15 13:31:57;;;;;;;7.38;1.80;;;;;;;;;;6183807;23;20014;-84
2022/06/15 13:34:34;;;;;;;5.35;1.85;;;;;;;;;;6173184;23;20030;-85
2022/06/15 13:37:12;;;;;;;6.65;1.83;;;;;;;;;;6183926;23;20770;-85
2022/06/15 13:39:43;;;;;;;6.28;1.67;;;;;;;;;;6183571;23;20010;-85
2022/06/15 13:42:21;;;;;;;26.63;3.40;;;;;;;;;;6183095;23;20104;-84
2022/06/15 13:44:59;;;;;;;8.60;1.70;;;;;;;;;;6182730;23;20022;-85
2022/06/15 13:47:28;;;;;;;5.25;1.92;;;;;;;;;;6183708;23;20094;-83
2022/06/15 13:50:01;;;;;;;5.30;1.73;;;;;;;;;;6182546;23;20014;-85
2022/06/15 13:52:30;;;;;;;4.05;1.52;;;;;;;;;;6183636;23;20022;-84
2022/06/15 13:55:11;;;;;;;27.92;3.13;;;;;;;;;;6182355;23;20033;-84
2022/06/15 13:57:54;;;;;;;4.30;1.80;;;;;;;;;;6183467;23;20017;-84
2022/06/15 14:00:36;;;;;;;2.78;1.35;;;;;;;;;;6183725;23;20033;-83
2022/06/15 14:03:19;;;;;;;5.03;1.70;;;;;;;;;;6187011;23;20031;-85
2022/06/15 14:05:59;;;;;;;7.07;1.60;;;;;;;;;;6186021;23;20018;-85
2022/06/15 14:08:40;;;;;;;7.78;1.70;;;;;;;;;;6186187;23;20043;-86
2022/06/15 14:11:28;;;;;;;4.32;1.60;;;;;;;;;;6187231;23;20028;-84
2022/06/15 14:14:20;;;;;;;6.88;2.00;;;;;;;;;;6186961;23;19998;-85
2022/06/15 14:16:51;;;;;;;4.82;1.80;;;;;;;;;;6183212;23;20022;-83
2022/06/15 14:19:20;;;;;;;4.38;1.60;;;;;;;;;;6185114;23;20010;-82
2022/06/15 14:22:22;;;;;;;4.47;1.88;;;;;;;;;;6186024;23;20057;-85
2022/06/15 14:25:00;;;;;;;3.95;1.65;;;;;;;;;;6139228;23;20030;-86
2022/06/15 14:27:29;;;;;;;6.20;1.52;;;;;;;;;;6185270;23;20018;-85
2022/06/15 14:30:01;;;;;;;5.72;1.50;;;;;;;;;;6184575;23;20018;-82
2022/06/15 14:32:30;;;;;;;7.10;1.80;;;;;;;;;;6186137;23;20018;-84
2022/06/15 14:35:02;;;;;;;5.75;1.60;;;;;;;;;;6185445;23;20013;-83
2022/06/15 14:37:29;;;;;;;4.50;1.60;;;;;;;;;;6184796;23;20066;-83
2022/06/15 14:39:57;;;;;;;4.80;1.83;;;;;;;;;;6185372;23;20057;-85
2022/06/15 14:42:54;;;;;;;7.35;1.83;;;;;;;;;;6184781;23;20065;-85
2022/06/15 14:45:18;;;;;;;7.78;1.83;;;;;;;;;;6182596;23;20018;-83
2022/06/15 14:47:52;;;;;;;6.30;1.90;;;;;;;;;;6181516;23;20067;-84
2022/06/15 14:50:20;;;;;;;4.63;1.70;;;;;;;;;;6183363;23;20014;-84
2022/06/15 14:52:48;;;;;;;5.00;1.80;;;;;;;;;;6184036;23;20058;-83
2022/06/15 14:55:17;;;;;;;5.00;1.55;;;;;;;;;;6183632;23;20026;-84
2022/06/15 14:57:44;;;;;;;4.78;1.70;;;;;;;;;;6185256;23;20025;-84
2022/06/15 15:00:25;;;;;;;4.68;1.58;;;;;;;;;;6183689;23;19999;-83
2022/06/15 15:02:57;;;;;;;5.22;1.80;;;;;;;;;;6185209;23;20006;-85
2022/06/15 15:05:29;;;;;;;5.03;1.77;;;;;;;;;;6185023;23;20081;-85
2022/06/15 15:08:15;;;;;;;4.72;1.65;;;;;;;;;;6181870;23;20002;-83
2022/06/15 15:10:46;;;;;;;3.65;1.70;;;;;;;;;;6185040;23;20029;-85
2022/06/15 15:13:13;;;;;;;5.10;1.85;;;;;;;;;;6185143;23;20026;-84
2022/06/15 15:15:44;;;;;;;3.47;1.60;;;;;;;;;;6178760;23;20018;-83
2022/06/15 15:18:16;;;;;;;5.15;1.90;;;;;;;;;;6181037;23;20051;-85
2022/06/15 15:20:46;;;;;;;4.15;1.63;;;;;;;;;;6174821;23;20018;-86
2022/06/15 15:23:16;;;;;;;4.47;1.90;;;;;;;;;;6183777;23;20026;-85